sensor_id;sensor_type;location;lat;lon;timestamp;pressure;altitude;pressure_sealevel;temperature;humidity
68508;BME280;55510;49.560;19.090;2023-06-22T17:18:48;96555.81;;;27.43;69.74
68508;BME280;55510;49.560;19.090;2023-06-22T17:21:49;96554.44;;;27.20;69.90
68508;BME280;55510;49.560;19.090;2023-06-22T17:24:50;96559.88;;;27.04;69.72
68508;BME280;55510;49.560;19.090;2023-06-22T17:27:58;96551.94;;;26.87;69.50
68508;BME280;55510;49.560;19.090;2023-06-22T17:31:09;96554.94;;;26.69;70.93
68508;BME280;55510;49.560;19.090;2023-06-22T17:34:12;96550.53;;;26.52;71.40
68508;BME280;55510;49.560;19.090;2023-06-22T17:37:13;96550.44;;;26.36;72.03
68508;BME280;55510;49.560;19.090;2023-06-22T17:40:15;96546.47;;;26.21;72.43
68508;BME280;55510;49.560;19.090;2023-06-22T17:43:19;96551.91;;;26.09;72.81
68508;BME280;55510;49.560;19.090;2023-06-22T17:46:21;96552.69;;;25.97;73.33
68508;BME280;55510;49.560;19.090;2023-06-22T17:49:26;96551.09;;;25.83;74.50
68508;BME280;55510;49.560;19.090;2023-06-22T17:52:27;96542.13;;;25.70;75.06
68508;BME280;55510;49.560;19.090;2023-06-22T17:55:27;96539.72;;;25.56;76.57
68508;BME280;55510;49.560;19.090;2023-06-22T17:58:28;96543.06;;;25.41;76.49
68508;BME280;55510;49.560;19.090;2023-06-22T18:04:36;96533.78;;;25.08;77.64
68508;BME280;55510;49.560;19.090;2023-06-22T18:07:36;96532.13;;;24.95;76.93
68508;BME280;55510;49.560;19.090;2023-06-22T18:10:38;96522.66;;;24.80;77.65
68508;BME280;55510;49.560;19.090;2023-06-22T18:13:40;96513.94;;;24.65;78.93
68508;BME280;55510;49.560;19.090;2023-06-22T18:16:44;96507.31;;;24.54;79.56
68508;BME280;55510;49.560;19.090;2023-06-22T18:19:46;96507.91;;;24.38;80.24
68508;BME280;55510;49.560;19.090;2023-06-22T18:22:48;96512.31;;;24.22;80.45
68508;BME280;55510;49.560;19.090;2023-06-22T18:25:49;96511.91;;;24.11;81.88
68508;BME280;55510;49.560;19.090;2023-06-22T18:28:54;96511.31;;;23.96;83.75
68508;BME280;55510;49.560;19.090;2023-06-22T18:31:55;96513.94;;;23.84;85.55
68508;BME280;55510;49.560;19.090;2023-06-22T18:34:57;96513.38;;;23.69;86.03
68508;BME280;55510;49.560;19.090;2023-06-22T18:37:59;96515.16;;;23.56;86.78
68508;BME280;55510;49.560;19.090;2023-06-22T18:41:00;96521.63;;;23.43;88.02
68508;BME280;55510;49.560;19.090;2023-06-22T18:44:02;96513.97;;;23.27;88.08
68508;BME280;55510;49.560;19.090;2023-06-22T18:47:04;96521.00;;;23.11;89.41
68508;BME280;55510;49.560;19.090;2023-06-22T18:50:06;96518.78;;;22.95;89.94
68508;BME280;55510;49.560;19.090;2023-06-22T18:56:16;96532.22;;;22.65;91.88
68508;BME280;55510;49.560;19.090;2023-06-22T19:02:46;96540.13;;;22.35;93.65
68508;BME280;55510;49.560;19.090;2023-06-22T19:05:48;96543.53;;;22.09;95.52
68508;BME280;55510;49.560;19.090;2023-06-22T19:09:13;96537.47;;;21.95;96.60
68508;BME280;55510;49.560;19.090;2023-06-22T19:12:20;96534.84;;;21.81;97.52
68508;BME280;55510;49.560;19.090;2023-06-22T19:15:21;96543.88;;;21.67;98.22
68508;BME280;55510;49.560;19.090;2023-06-22T19:18:32;96542.84;;;21.54;98.59
68508;BME280;55510;49.560;19.090;2023-06-22T19:21:34;96551.22;;;21.44;99.57
68508;BME280;55510;49.560;19.090;2023-06-22T19:24:55;96555.81;;;21.35;99.35
68508;BME280;55510;49.560;19.090;2023-06-22T19:28:00;96554.94;;;21.25;99.57
68508;BME280;55510;49.560;19.090;2023-06-22T19:31:01;96554.69;;;21.13;100.00
68508;BME280;55510;49.560;19.090;2023-06-22T19:34:04;96555.28;;;21.01;100.00
68508;BME280;55510;49.560;19.090;2023-06-22T19:37:14;96553.72;;;20.86;100.00
68508;BME280;55510;49.560;19.090;2023-06-22T19:40:16;96556.59;;;20.76;100.00
68508;BME280;55510;49.560;19.090;2023-06-22T19:43:18;96552.53;;;20.64;100.00
68508;BME280;55510;49.560;19.090;2023-06-22T19:46:29;96554.00;;;20.48;100.00
68508;BME280;55510;49.560;19.090;2023-06-22T19:49:33;96557.91;;;20.41;100.00
68508;BME280;55510;49.560;19.090;2023-06-22T19:52:40;96559.13;;;20.35;100.00
68508;BME280;55510;49.560;19.090;2023-06-22T19:55:44;96556.00;;;20.28;100.00
68508;BME280;55510;49.560;19.090;2023-06-22T19:58:45;96558.31;;;20.21;100.00
68508;BME280;55510;49.560;19.090;2023-06-22T20:01:46;96556.84;;;20.14;100.00
68508;BME280;55510;49.560;19.090;2023-06-22T20:04:46;96557.53;;;20.06;100.00
68508;BME280;55510;49.560;19.090;2023-06-22T20:07:47;96566.84;;;20.00;100.00
68508;BME280;55510;49.560;19.090;2023-06-22T20:10:48;96568.56;;;19.96;100.00
68508;BME280;55510;49.560;19.090;2023-06-22T20:13:51;96563.00;;;19.87;100.00
68508;BME280;55510;49.560;19.090;2023-06-22T20:16:52;96559.69;;;19.76;100.00
68508;BME280;55510;49.560;19.090;2023-06-22T20:19:57;96555.59;;;19.65;100.00
68508;BME280;55510;49.560;19.090;2023-06-22T20:22:57;96542.78;;;19.56;100.00
68508;BME280;55510;49.560;19.090;2023-06-22T20:26:00;96541.94;;;19.42;100.00
68508;BME280;55510;49.560;19.090;2023-06-22T20:29:00;96530.75;;;19.35;100.00
68508;BME280;55510;49.560;19.090;2023-06-22T20:32:14;96527.34;;;19.29;100.00
68508;BME280;55510;49.560;19.090;2023-06-22T20:35:15;96537.13;;;19.25;100.00
68508;BME280;55510;49.560;19.090;2023-06-22T20:38:16;96538.00;;;19.20;100.00
68508;BME280;55510;49.560;19.090;2023-06-22T20:41:16;96534.31;;;19.16;100.00
68508;BME280;55510;49.560;19.090;2023-06-22T20:44:18;96532.72;;;19.15;100.00
68508;BME280;55510;49.560;19.090;2023-06-22T20:47:19;96541.69;;;19.10;100.00
68508;BME280;55510;49.560;19.090;2023-06-22T20:50:27;96535.06;;;19.03;100.00
68508;BME280;55510;49.560;19.090;2023-06-22T20:53:30;96523.53;;;18.97;100.00
68508;BME280;55510;49.560;19.090;2023-06-22T20:56:30;96521.78;;;18.87;100.00
68508;BME280;55510;49.560;19.090;2023-06-22T20:59:34;96516.47;;;18.82;100.00
68508;BME280;55510;49.560;19.090;2023-06-22T21:02:35;96510.25;;;18.67;100.00
68508;BME280;55510;49.560;19.090;2023-06-22T21:05:35;96516.72;;;18.66;100.00
68508;BME280;55510;49.560;19.090;2023-06-22T21:08:36;96510.31;;;18.62;100.00
68508;BME280;55510;49.560;19.090;2023-06-22T21:11:40;96504.19;;;18.57;100.00
68508;BME280;55510;49.560;19.090;2023-06-22T21:14:41;96507.72;;;18.57;100.00
68508;BME280;55510;49.560;19.090;2023-06-22T21:17:42;96503.91;;;18.58;100.00
68508;BME280;55510;49.560;19.090;2023-06-22T21:20:43;96511.78;;;18.54;100.00
68508;BME280;55510;49.560;19.090;2023-06-22T21:23:43;96511.78;;;18.54;100.00
68508;BME280;55510;49.560;19.090;2023-06-22T21:26:44;96512.56;;;18.55;100.00
68508;BME280;55510;49.560;19.090;2023-06-22T21:29:45;96514.19;;;18.56;100.00
68508;BME280;55510;49.560;19.090;2023-06-22T21:32:45;96505.00;;;18.57;100.00
68508;BME280;55510;49.560;19.090;2023-06-22T21:35:46;96507.97;;;18.55;100.00
68508;BME280;55510;49.560;19.090;2023-06-22T21:38:47;96513.09;;;18.57;100.00
68508;BME280;55510;49.560;19.090;2023-06-22T21:41:47;96512.00;;;18.58;100.00
68508;BME280;55510;49.560;19.090;2023-06-22T21:44:48;96503.91;;;18.58;100.00
68508;BME280;55510;49.560;19.090;2023-06-22T21:47:49;96501.28;;;18.53;100.00
68508;BME280;55510;49.560;19.090;2023-06-22T21:50:50;96502.09;;;18.53;100.00
68508;BME280;55510;49.560;19.090;2023-06-22T21:53:50;96503.47;;;18.51;100.00
68508;BME280;55510;49.560;19.090;2023-06-22T21:56:51;96497.06;;;18.47;100.00
68508;BME280;55510;49.560;19.090;2023-06-22T21:59:55;96489.03;;;18.41;100.00
68508;BME280;55510;49.560;19.090;2023-06-22T22:02:56;96480.53;;;18.34;100.00
68508;BME280;55510;49.560;19.090;2023-06-22T22:05:56;96480.88;;;18.27;100.00
68508;BME280;55510;49.560;19.090;2023-06-22T22:08:57;96482.88;;;18.22;100.00
68508;BME280;55510;49.560;19.090;2023-06-22T22:11:58;96477.03;;;18.15;100.00
68508;BME280;55510;49.560;19.090;2023-06-22T22:14:59;96456.44;;;18.05;100.00
68508;BME280;55510;49.560;19.090;2023-06-22T22:17:59;96455.09;;;18.02;100.00
68508;BME280;55510;49.560;19.090;2023-06-22T22:21:05;96433.63;;;17.97;100.00
68508;BME280;55510;49.560;19.090;2023-06-22T22:24:06;96427.13;;;17.98;100.00
68508;BME280;55510;49.560;19.090;2023-06-22T22:27:06;96412.88;;;17.97;100.00
68508;BME280;55510;49.560;19.090;2023-06-22T22:30:07;96409.69;;;17.95;100.00
68508;BME280;55510;49.560;19.090;2023-06-22T22:33:08;96406.50;;;17.93;100.00
68508;BME280;55510;49.560;19.090;2023-06-22T22:36:09;96407.13;;;17.85;100.00
68508;BME280;55510;49.560;19.090;2023-06-22T22:39:10;96406.91;;;17.81;100.00
68508;BME280;55510;49.560;19.090;2023-06-22T22:42:11;96403.47;;;17.76;100.00
68508;BME280;55510;49.560;19.090;2023-06-22T22:45:12;96399.47;;;17.73;100.00
68508;BME280;55510;49.560;19.090;2023-06-22T22:48:12;96384.47;;;17.67;100.00
68508;BME280;55510;49.560;19.090;2023-06-22T22:51:13;96380.19;;;17.66;100.00
68508;BME280;55510;49.560;19.090;2023-06-22T22:54:14;96368.97;;;17.59;100.00
68508;BME280;55510;49.560;19.090;2023-06-22T22:57:14;96363.91;;;17.57;100.00
68508;BME280;55510;49.560;19.090;2023-06-22T23:00:15;96364.09;;;17.61;100.00
68508;BME280;55510;49.560;19.090;2023-06-22T23:03:16;96368.41;;;17.62;100.00
68508;BME280;55510;49.560;19.090;2023-06-22T23:06:17;96376.47;;;17.62;100.00
68508;BME280;55510;49.560;19.090;2023-06-22T23:09:18;96366.53;;;17.62;100.00
68508;BME280;55510;49.560;19.090;2023-06-22T23:12:19;96358.22;;;17.59;100.00
68508;BME280;55510;49.560;19.090;2023-06-22T23:15:19;96360.97;;;17.53;100.00
68508;BME280;55510;49.560;19.090;2023-06-22T23:18:21;96358.88;;;17.50;100.00
68508;BME280;55510;49.560;19.090;2023-06-22T23:21:22;96358.28;;;17.53;100.00
68508;BME280;55510;49.560;19.090;2023-06-22T23:24:23;96351.59;;;17.51;100.00
68508;BME280;55510;49.560;19.090;2023-06-22T23:27:24;96349.97;;;17.31;100.00
68508;BME280;55510;49.560;19.090;2023-06-22T23:30:24;96346.53;;;17.25;100.00
68508;BME280;55510;49.560;19.090;2023-06-22T23:33:26;96343.59;;;17.21;100.00
68508;BME280;55510;49.560;19.090;2023-06-22T23:36:27;96346.28;;;17.21;100.00
68508;BME280;55510;49.560;19.090;2023-06-22T23:39:28;96337.97;;;17.23;100.00
68508;BME280;55510;49.560;19.090;2023-06-22T23:42:29;96328.81;;;17.24;100.00
68508;BME280;55510;49.560;19.090;2023-06-22T23:45:30;96332.81;;;17.27;100.00
68508;BME280;55510;49.560;19.090;2023-06-22T23:48:30;96339.50;;;17.29;100.00
68508;BME280;55510;49.560;19.090;2023-06-22T23:51:31;96341.41;;;17.29;100.00
68508;BME280;55510;49.560;19.090;2023-06-22T23:54:31;96340.81;;;17.32;100.00
68508;BME280;55510;49.560;19.090;2023-06-22T23:57:32;96340.75;;;17.37;100.00
